Terminal Aerodrome Forecast
Issued by NWS

Home | Current Version | Previous Version | Text Only | Print | Product List | Glossary On
Versions: 1 2 3 4 5 6 7 8 9 10 11 12 13 14
063
FTPA31 PHFO 161731
TAFHLI
TAF
PHLI 161731Z 1618/1718 28004KT P6SM FEW020 SCT035 BKN250
     FM162100 09007KT P6SM FEW020 SCT035 SCT250
     FM170900 03004KT P6SM SCT020 BKN035=

USA.gov is the U.S. government's official web portal to all federal, state and local government web resources and services.